sensor_id;sensor_type;location;lat;lon;timestamp;pressure;altitude;pressure_sealevel;temperature;humidity
46506;BME280;32220;49.808;9.968;2022-10-23T00:01:38;99005.59;;;12.01;80.81
46506;BME280;32220;49.808;9.968;2022-10-23T00:04:11;98988.78;;;11.87;81.03
46506;BME280;32220;49.808;9.968;2022-10-23T00:06:39;98985.41;;;11.85;80.83
46506;BME280;32220;49.808;9.968;2022-10-23T00:09:09;99002.59;;;11.93;81.64
46506;BME280;32220;49.808;9.968;2022-10-23T00:11:38;99005.47;;;11.90;81.52
46506;BME280;32220;49.808;9.968;2022-10-23T00:14:06;98991.66;;;11.84;81.46
46506;BME280;32220;49.808;9.968;2022-10-23T00:16:34;98979.72;;;11.77;81.54
46506;BME280;32220;49.808;9.968;2022-10-23T00:19:02;98999.63;;;11.84;81.61
46506;BME280;32220;49.808;9.968;2022-10-23T00:21:32;98982.56;;;11.74;81.58
46506;BME280;32220;49.808;9.968;2022-10-23T00:24:00;98970.34;;;11.72;81.65
46506;BME280;32220;49.808;9.968;2022-10-23T00:26:28;98977.47;;;11.71;81.63
46506;BME280;32220;49.808;9.968;2022-10-23T00:28:56;98988.44;;;11.79;81.57
46506;BME280;32220;49.808;9.968;2022-10-23T00:31:25;98971.38;;;11.69;81.49
46506;BME280;32220;49.808;9.968;2022-10-23T00:33:52;98977.75;;;11.67;81.53
46506;BME280;32220;49.808;9.968;2022-10-23T00:36:21;98946.28;;;11.48;81.67
46506;BME280;32220;49.808;9.968;2022-10-23T00:38:50;98961.88;;;11.52;81.50
46506;BME280;32220;49.808;9.968;2022-10-23T00:41:21;98971.34;;;11.57;81.41
46506;BME280;32220;49.808;9.968;2022-10-23T00:44:02;98984.09;;;11.64;81.23
46506;BME280;32220;49.808;9.968;2022-10-23T00:46:31;98964.75;;;11.49;81.32
46506;BME280;32220;49.808;9.968;2022-10-23T00:48:59;98948.75;;;11.37;81.12
46506;BME280;32220;49.808;9.968;2022-10-23T00:51:31;98976.56;;;11.44;81.26
46506;BME280;32220;49.808;9.968;2022-10-23T00:54:02;98985.97;;;11.49;81.12
46506;BME280;32220;49.808;9.968;2022-10-23T00:56:32;98985.28;;;11.46;81.32
46506;BME280;32220;49.808;9.968;2022-10-23T00:59:03;98961.44;;;11.32;81.20
46506;BME280;32220;49.808;9.968;2022-10-23T01:01:30;98979.50;;;11.39;81.39
46506;BME280;32220;49.808;9.968;2022-10-23T01:03:58;98960.78;;;11.28;81.40
46506;BME280;32220;49.808;9.968;2022-10-23T01:06:32;98982.47;;;11.35;81.30
46506;BME280;32220;49.808;9.968;2022-10-23T01:09:08;98956.16;;;11.18;81.26
46506;BME280;32220;49.808;9.968;2022-10-23T01:11:44;98959.41;;;11.23;81.05
46506;BME280;32220;49.808;9.968;2022-10-23T01:14:21;98971.72;;;11.24;81.18
46506;BME280;32220;49.808;9.968;2022-10-23T01:16:57;98942.84;;;11.05;81.25
46506;BME280;32220;49.808;9.968;2022-10-23T01:19:41;98971.41;;;11.14;81.21
46506;BME280;32220;49.808;9.968;2022-10-23T01:22:20;98960.72;;;11.15;81.08
46506;BME280;32220;49.808;9.968;2022-10-23T01:24:58;98975.41;;;11.21;81.36
46506;BME280;32220;49.808;9.968;2022-10-23T01:27:31;98975.50;;;11.20;81.20
46506;BME280;32220;49.808;9.968;2022-10-23T01:30:04;98962.22;;;11.20;81.84
46506;BME280;32220;49.808;9.968;2022-10-23T01:32:41;98950.41;;;11.11;81.64
46506;BME280;32220;49.808;9.968;2022-10-23T01:35:13;98959.59;;;11.20;82.00
46506;BME280;32220;49.808;9.968;2022-10-23T01:37:50;98961.28;;;11.21;82.06
46506;BME280;32220;49.808;9.968;2022-10-23T01:40:22;98907.19;;;10.82;81.99
46506;BME280;32220;49.808;9.968;2022-10-23T01:42:55;98957.13;;;11.16;81.87
46506;BME280;32220;49.808;9.968;2022-10-23T01:45:31;98937.25;;;11.09;81.84
46506;BME280;32220;49.808;9.968;2022-10-23T01:48:01;98902.47;;;10.87;81.61
46506;BME280;32220;49.808;9.968;2022-10-23T01:50:32;98933.56;;;11.12;81.51
46506;BME280;32220;49.808;9.968;2022-10-23T01:53:03;98942.72;;;11.21;81.36
46506;BME280;32220;49.808;9.968;2022-10-23T01:55:32;98923.69;;;11.14;81.57
46506;BME280;32220;49.808;9.968;2022-10-23T01:58:14;98942.72;;;11.21;81.74
46506;BME280;32220;49.808;9.968;2022-10-23T02:00:44;98955.22;;;11.19;81.57
46506;BME280;32220;49.808;9.968;2022-10-23T02:03:15;98933.94;;;11.06;81.26
46506;BME280;32220;49.808;9.968;2022-10-23T02:05:44;98927.59;;;11.08;81.38
46506;BME280;32220;49.808;9.968;2022-10-23T02:08:12;98928.84;;;11.03;81.57
46506;BME280;32220;49.808;9.968;2022-10-23T02:10:46;98952.22;;;11.10;81.64
46506;BME280;32220;49.808;9.968;2022-10-23T02:13:21;98954.09;;;11.08;81.42
46506;BME280;32220;49.808;9.968;2022-10-23T02:15:57;98940.28;;;11.03;81.49
46506;BME280;32220;49.808;9.968;2022-10-23T02:18:34;98942.19;;;11.01;81.77
46506;BME280;32220;49.808;9.968;2022-10-23T02:21:08;98917.59;;;10.85;82.05
46506;BME280;32220;49.808;9.968;2022-10-23T02:23:39;98932.56;;;10.86;82.17
46506;BME280;32220;49.808;9.968;2022-10-23T02:26:15;98943.59;;;10.93;82.53
46506;BME280;32220;49.808;9.968;2022-10-23T02:28:51;98937.66;;;10.89;82.66
46506;BME280;32220;49.808;9.968;2022-10-23T02:31:23;98911.66;;;10.67;82.64
46506;BME280;32220;49.808;9.968;2022-10-23T02:33:50;98943.69;;;10.77;82.67
46506;BME280;32220;49.808;9.968;2022-10-23T02:36:18;98947.13;;;10.79;82.52
46506;BME280;32220;49.808;9.968;2022-10-23T02:38:46;98924.03;;;10.67;82.67
46506;BME280;32220;49.808;9.968;2022-10-23T02:41:34;98936.69;;;10.76;82.72
46506;BME280;32220;49.808;9.968;2022-10-23T02:44:21;98861.44;;;10.37;83.27
46506;BME280;32220;49.808;9.968;2022-10-23T02:46:59;98906.25;;;10.69;83.27
46506;BME280;32220;49.808;9.968;2022-10-23T02:49:37;98907.00;;;10.71;83.96
46506;BME280;32220;49.808;9.968;2022-10-23T02:52:14;98900.19;;;10.67;84.13
46506;BME280;32220;49.808;9.968;2022-10-23T02:55:04;98895.47;;;10.58;83.92
46506;BME280;32220;49.808;9.968;2022-10-23T02:57:50;98872.78;;;10.39;83.53
46506;BME280;32220;49.808;9.968;2022-10-23T03:00:23;98907.78;;;10.59;83.42
46506;BME280;32220;49.808;9.968;2022-10-23T03:02:55;98908.34;;;10.50;83.30
46506;BME280;32220;49.808;9.968;2022-10-23T03:05:30;98902.28;;;10.48;83.29
46506;BME280;32220;49.808;9.968;2022-10-23T03:08:01;98910.25;;;10.48;83.33
46506;BME280;32220;49.808;9.968;2022-10-23T03:10:29;98906.44;;;10.52;83.20
46506;BME280;32220;49.808;9.968;2022-10-23T03:12:57;98896.06;;;10.49;82.97
46506;BME280;32220;49.808;9.968;2022-10-23T03:15:28;98874.09;;;10.32;83.04
46506;BME280;32220;49.808;9.968;2022-10-23T03:17:56;98878.47;;;10.33;82.92
46506;BME280;32220;49.808;9.968;2022-10-23T03:20:24;98861.53;;;10.22;82.79
46506;BME280;32220;49.808;9.968;2022-10-23T03:22:51;98883.00;;;10.31;83.07
46506;BME280;32220;49.808;9.968;2022-10-23T03:25:19;98879.75;;;10.26;82.84
46506;BME280;32220;49.808;9.968;2022-10-23T03:27:47;98881.66;;;10.24;83.03
46506;BME280;32220;49.808;9.968;2022-10-23T03:30:16;98891.69;;;10.33;83.04
46506;BME280;32220;49.808;9.968;2022-10-23T03:32:49;98893.41;;;10.34;82.81
46506;BME280;32220;49.808;9.968;2022-10-23T03:35:18;98872.78;;;10.25;83.19
46506;BME280;32220;49.808;9.968;2022-10-23T03:37:46;98874.28;;;10.29;83.07
46506;BME280;32220;49.808;9.968;2022-10-23T03:40:13;98871.09;;;10.24;83.07
46506;BME280;32220;49.808;9.968;2022-10-23T03:42:41;98881.09;;;10.33;83.24
46506;BME280;32220;49.808;9.968;2022-10-23T03:45:11;98880.34;;;10.31;83.24
46506;BME280;32220;49.808;9.968;2022-10-23T03:47:39;98885.53;;;10.33;83.06
46506;BME280;32220;49.808;9.968;2022-10-23T03:50:09;98896.41;;;10.42;83.14
46506;BME280;32220;49.808;9.968;2022-10-23T03:52:39;98895.38;;;10.45;82.77
46506;BME280;32220;49.808;9.968;2022-10-23T03:55:07;98879.22;;;10.35;83.52
46506;BME280;32220;49.808;9.968;2022-10-23T03:57:36;98890.94;;;10.46;83.32
46506;BME280;32220;49.808;9.968;2022-10-23T04:00:06;98898.88;;;10.46;83.51
46506;BME280;32220;49.808;9.968;2022-10-23T04:02:42;98898.13;;;10.43;83.46
46506;BME280;32220;49.808;9.968;2022-10-23T04:05:11;98885.81;;;10.42;83.48
46506;BME280;32220;49.808;9.968;2022-10-23T04:07:49;98861.81;;;10.31;83.25
46506;BME280;32220;49.808;9.968;2022-10-23T04:10:17;98861.81;;;10.31;83.15
46506;BME280;32220;49.808;9.968;2022-10-23T04:12:44;98812.53;;;10.00;83.10
46506;BME280;32220;49.808;9.968;2022-10-23T04:15:12;98853.81;;;10.17;83.17
46506;BME280;32220;49.808;9.968;2022-10-23T04:17:43;98861.00;;;10.15;83.44
46506;BME280;32220;49.808;9.968;2022-10-23T04:20:13;98878.09;;;10.25;83.44
46506;BME280;32220;49.808;9.968;2022-10-23T04:22:41;98891.69;;;10.33;83.47
46506;BME280;32220;49.808;9.968;2022-10-23T04:25:10;98886.03;;;10.25;83.14
46506;BME280;32220;49.808;9.968;2022-10-23T04:27:38;98888.28;;;10.31;83.46
46506;BME280;32220;49.808;9.968;2022-10-23T08:15:39;98812.63;;;13.01;100.00
46506;BME280;32220;49.808;9.968;2022-10-23T08:18:21;98807.06;;;13.76;98.54
46506;BME280;32220;49.808;9.968;2022-10-23T08:20:49;98809.97;;;14.63;93.34
46506;BME280;32220;49.808;9.968;2022-10-23T08:23:19;98827.63;;;15.41;87.88
46506;BME280;32220;49.808;9.968;2022-10-23T08:25:47;98820.22;;;15.97;84.74
46506;BME280;32220;49.808;9.968;2022-10-23T08:28:16;98827.00;;;16.52;81.49
46506;BME280;32220;49.808;9.968;2022-10-23T08:30:54;98798.59;;;16.61;78.99
46506;BME280;32220;49.808;9.968;2022-10-23T08:33:23;98827.19;;;16.91;77.80
46506;BME280;32220;49.808;9.968;2022-10-23T08:35:50;98838.03;;;17.09;76.89
46506;BME280;32220;49.808;9.968;2022-10-23T08:38:27;98844.25;;;17.19;75.63
46506;BME280;32220;49.808;9.968;2022-10-23T08:40:55;98840.78;;;17.28;74.75
46506;BME280;32220;49.808;9.968;2022-10-23T08:43:47;98829.63;;;17.23;73.58
46506;BME280;32220;49.808;9.968;2022-10-23T08:46:35;98814.56;;;17.22;73.84
46506;BME280;32220;49.808;9.968;2022-10-23T08:49:33;98833.75;;;17.46;73.55
46506;BME280;32220;49.808;9.968;2022-10-23T08:52:11;98827.25;;;17.58;72.97
46506;BME280;32220;49.808;9.968;2022-10-23T08:54:49;98838.31;;;17.75;72.75
46506;BME280;32220;49.808;9.968;2022-10-23T08:57:22;98841.09;;;18.02;72.21
46506;BME280;32220;49.808;9.968;2022-10-23T08:59:55;98823.75;;;18.16;71.41
46506;BME280;32220;49.808;9.968;2022-10-23T09:02:27;98820.44;;;18.31;71.22
46506;BME280;32220;49.808;9.968;2022-10-23T09:04:56;98829.69;;;18.66;71.04
46506;BME280;32220;49.808;9.968;2022-10-23T09:07:33;98815.75;;;18.80;69.81
46506;BME280;32220;49.808;9.968;2022-10-23T09:10:20;98807.75;;;18.98;69.24
46506;BME280;32220;49.808;9.968;2022-10-23T09:12:51;98810.44;;;19.25;68.86
46506;BME280;32220;49.808;9.968;2022-10-23T09:15:23;98831.13;;;19.60;67.57
46506;BME280;32220;49.808;9.968;2022-10-23T09:17:58;98834.72;;;19.87;65.37
46506;BME280;32220;49.808;9.968;2022-10-23T09:20:31;98807.47;;;20.07;65.59
46506;BME280;32220;49.808;9.968;2022-10-23T09:23:02;98803.53;;;20.37;64.95
46506;BME280;32220;49.808;9.968;2022-10-23T09:25:36;98829.03;;;20.59;61.88
46506;BME280;32220;49.808;9.968;2022-10-23T09:28:04;98825.38;;;20.68;61.23
46506;BME280;32220;49.808;9.968;2022-10-23T09:30:35;98818.00;;;20.78;61.33
46506;BME280;32220;49.808;9.968;2022-10-23T09:33:14;98811.41;;;21.07;61.64
46506;BME280;32220;49.808;9.968;2022-10-23T09:35:54;98814.97;;;21.15;59.80
46506;BME280;32220;49.808;9.968;2022-10-23T09:38:27;98812.66;;;21.29;60.18
46506;BME280;32220;49.808;9.968;2022-10-23T09:40:56;98796.50;;;21.29;59.90
46506;BME280;32220;49.808;9.968;2022-10-23T09:43:28;98789.66;;;21.59;59.86
46506;BME280;32220;49.808;9.968;2022-10-23T09:46:40;98812.75;;;22.34;56.93
46506;BME280;32220;49.808;9.968;2022-10-23T09:49:16;98805.84;;;22.95;54.74
46506;BME280;32220;49.808;9.968;2022-10-23T09:51:53;98815.81;;;23.56;53.79
46506;BME280;32220;49.808;9.968;2022-10-23T09:54:22;98775.69;;;23.68;52.11
46506;BME280;32220;49.808;9.968;2022-10-23T09:56:52;98819.94;;;24.50;50.81
46506;BME280;32220;49.808;9.968;2022-10-23T09:59:23;98818.28;;;25.08;48.97
46506;BME280;32220;49.808;9.968;2022-10-23T10:01:53;98838.44;;;25.92;46.67
46506;BME280;32220;49.808;9.968;2022-10-23T10:04:58;98831.94;;;26.36;46.71
46506;BME280;32220;49.808;9.968;2022-10-23T10:07:27;98831.81;;;26.44;46.50
46506;BME280;32220;49.808;9.968;2022-10-23T10:09:56;98835.91;;;26.61;45.51
46506;BME280;32220;49.808;9.968;2022-10-23T10:12:43;98829.03;;;26.65;44.97
46506;BME280;32220;49.808;9.968;2022-10-23T10:15:19;98826.63;;;26.49;45.08
46506;BME280;32220;49.808;9.968;2022-10-23T10:17:56;98822.94;;;26.29;45.10
46506;BME280;32220;49.808;9.968;2022-10-23T10:20:58;98828.66;;;26.75;45.25
46506;BME280;32220;49.808;9.968;2022-10-23T10:23:34;98844.47;;;28.08;43.67
46506;BME280;32220;49.808;9.968;2022-10-23T10:26:13;98874.59;;;30.14;38.12
46506;BME280;32220;49.808;9.968;2022-10-23T10:28:50;98869.69;;;31.70;35.26
46506;BME280;32220;49.808;9.968;2022-10-23T10:31:25;98888.56;;;32.62;33.88
46506;BME280;32220;49.808;9.968;2022-10-23T10:34:05;98857.34;;;33.61;33.59
46506;BME280;32220;49.808;9.968;2022-10-23T10:36:45;98868.41;;;33.66;31.74
46506;BME280;32220;49.808;9.968;2022-10-23T10:39:23;98856.47;;;32.51;33.44
46506;BME280;32220;49.808;9.968;2022-10-23T10:41:59;98847.22;;;31.80;34.70
46506;BME280;32220;49.808;9.968;2022-10-23T10:44:41;98851.22;;;33.07;33.83
46506;BME280;32220;49.808;9.968;2022-10-23T10:47:16;98867.38;;;35.29;30.56
46506;BME280;32220;49.808;9.968;2022-10-23T10:49:53;98879.50;;;36.90;28.97
46506;BME280;32220;49.808;9.968;2022-10-23T10:52:46;98875.84;;;37.16;28.50
46506;BME280;32220;49.808;9.968;2022-10-23T10:55:20;98869.66;;;37.04;29.24
46506;BME280;32220;49.808;9.968;2022-10-23T10:57:55;98853.78;;;36.79;29.20
46506;BME280;32220;49.808;9.968;2022-10-23T11:00:25;98872.09;;;36.58;26.86
46506;BME280;32220;49.808;9.968;2022-10-23T11:02:58;98834.94;;;36.39;28.48
46506;BME280;32220;49.808;9.968;2022-10-23T11:05:30;98832.78;;;35.87;28.97
46506;BME280;32220;49.808;9.968;2022-10-23T11:08:04;98796.50;;;34.81;30.66
46506;BME280;32220;49.808;9.968;2022-10-23T11:10:34;98800.72;;;34.34;30.64
46506;BME280;32220;49.808;9.968;2022-10-23T11:13:05;98804.66;;;34.09;30.83
46506;BME280;32220;49.808;9.968;2022-10-23T11:15:37;98803.97;;;33.85;30.92
46506;BME280;32220;49.808;9.968;2022-10-23T11:18:13;98810.44;;;33.79;31.75
46506;BME280;32220;49.808;9.968;2022-10-23T11:20:56;98789.91;;;33.82;31.02
46506;BME280;32220;49.808;9.968;2022-10-23T11:23:48;98805.09;;;33.73;30.35
46506;BME280;32220;49.808;9.968;2022-10-23T11:26:40;98763.94;;;32.58;32.30
46506;BME280;32220;49.808;9.968;2022-10-23T11:29:31;98765.84;;;31.39;33.37
46506;BME280;32220;49.808;9.968;2022-10-23T11:32:23;98752.03;;;30.18;35.33
46506;BME280;32220;49.808;9.968;2022-10-23T11:35:13;98735.88;;;29.22;36.40
46506;BME280;32220;49.808;9.968;2022-10-23T11:37:57;98720.22;;;28.53;38.06
46506;BME280;32220;49.808;9.968;2022-10-23T11:40:26;98731.38;;;28.12;39.15
46506;BME280;32220;49.808;9.968;2022-10-23T11:42:55;98716.09;;;27.65;39.83
46506;BME280;32220;49.808;9.968;2022-10-23T11:45:32;98672.91;;;27.22;40.17
46506;BME280;32220;49.808;9.968;2022-10-23T11:48:02;98673.75;;;27.16;40.40
46506;BME280;32220;49.808;9.968;2022-10-23T11:50:32;98641.00;;;26.76;41.00
46506;BME280;32220;49.808;9.968;2022-10-23T11:53:03;98672.75;;;26.69;41.93
46506;BME280;32220;49.808;9.968;2022-10-23T11:55:59;98583.59;;;25.97;42.14
46506;BME280;32220;49.808;9.968;2022-10-23T11:58:43;98634.31;;;25.97;43.55
46506;BME280;32220;49.808;9.968;2022-10-23T12:01:22;98631.63;;;25.69;43.87
46506;BME280;32220;49.808;9.968;2022-10-23T12:03:55;98655.25;;;25.54;43.92
46506;BME280;32220;49.808;9.968;2022-10-23T12:06:30;98650.09;;;25.80;43.96
46506;BME280;32220;49.808;9.968;2022-10-23T12:09:01;98604.81;;;25.87;43.53
46506;BME280;32220;49.808;9.968;2022-10-23T12:11:45;98677.94;;;26.71;43.57
46506;BME280;32220;49.808;9.968;2022-10-23T12:14:32;98640.28;;;27.15;42.15
46506;BME280;32220;49.808;9.968;2022-10-23T12:17:00;98638.28;;;28.54;40.34
46506;BME280;32220;49.808;9.968;2022-10-23T12:19:38;98667.47;;;30.66;36.71
46506;BME280;32220;49.808;9.968;2022-10-23T12:22:13;98684.13;;;32.19;33.84
46506;BME280;32220;49.808;9.968;2022-10-23T12:24:52;98659.69;;;31.41;34.07
46506;BME280;32220;49.808;9.968;2022-10-23T12:27:30;98666.38;;;30.30;35.95
46506;BME280;32220;49.808;9.968;2022-10-23T12:30:14;98659.56;;;29.15;36.93
46506;BME280;32220;49.808;9.968;2022-10-23T12:33:05;98623.44;;;28.37;39.11
46506;BME280;32220;49.808;9.968;2022-10-23T12:36:01;98634.84;;;28.01;39.79
46506;BME280;32220;49.808;9.968;2022-10-23T12:38:32;98644.50;;;27.71;40.39
46506;BME280;32220;49.808;9.968;2022-10-23T12:41:05;98620.00;;;27.31;40.52
46506;BME280;32220;49.808;9.968;2022-10-23T12:43:39;98606.78;;;27.02;41.81
46506;BME280;32220;49.808;9.968;2022-10-23T12:46:24;98580.75;;;26.60;42.12
46506;BME280;32220;49.808;9.968;2022-10-23T12:48:54;98610.41;;;26.61;42.94
46506;BME280;32220;49.808;9.968;2022-10-23T12:51:25;98601.13;;;26.36;43.12
46506;BME280;32220;49.808;9.968;2022-10-23T12:53:53;98584.53;;;26.18;43.73
46506;BME280;32220;49.808;9.968;2022-10-23T12:56:21;98567.09;;;25.92;44.12
46506;BME280;32220;49.808;9.968;2022-10-23T12:58:54;98580.94;;;25.69;44.17
46506;BME280;32220;49.808;9.968;2022-10-23T13:01:25;98574.31;;;25.51;45.64
46506;BME280;32220;49.808;9.968;2022-10-23T13:03:57;98567.91;;;25.30;46.02
46506;BME280;32220;49.808;9.968;2022-10-23T13:06:26;98539.69;;;24.97;46.39
46506;BME280;32220;49.808;9.968;2022-10-23T13:08:54;98550.38;;;24.84;47.27
46506;BME280;32220;49.808;9.968;2022-10-23T13:11:50;98539.59;;;24.48;47.54
46506;BME280;32220;49.808;9.968;2022-10-23T13:14:31;98544.22;;;24.32;48.46
46506;BME280;32220;49.808;9.968;2022-10-23T13:17:01;98523.81;;;24.00;48.62
46506;BME280;32220;49.808;9.968;2022-10-23T13:19:30;98521.41;;;23.91;49.07
46506;BME280;32220;49.808;9.968;2022-10-23T13:21:58;98515.16;;;23.90;49.18
46506;BME280;32220;49.808;9.968;2022-10-23T13:24:28;98524.44;;;24.17;49.38
46506;BME280;32220;49.808;9.968;2022-10-23T13:26:56;98519.84;;;24.32;49.43
46506;BME280;32220;49.808;9.968;2022-10-23T13:29:27;98524.72;;;24.58;48.70
46506;BME280;32220;49.808;9.968;2022-10-23T13:32:08;98504.59;;;24.67;48.60
46506;BME280;32220;49.808;9.968;2022-10-23T13:34:36;98529.03;;;25.23;48.16
46506;BME280;32220;49.808;9.968;2022-10-23T13:37:22;98533.13;;;26.09;47.22
46506;BME280;32220;49.808;9.968;2022-10-23T13:39:59;98529.38;;;26.78;45.95
46506;BME280;32220;49.808;9.968;2022-10-23T13:42:28;98544.47;;;27.46;44.23
46506;BME280;32220;49.808;9.968;2022-10-23T13:44:55;98553.16;;;27.95;43.00
46506;BME280;32220;49.808;9.968;2022-10-23T13:47:25;98550.19;;;28.60;42.04
46506;BME280;32220;49.808;9.968;2022-10-23T13:49:52;98549.75;;;29.51;41.25
46506;BME280;32220;49.808;9.968;2022-10-23T13:52:21;98564.56;;;30.71;40.12
46506;BME280;32220;49.808;9.968;2022-10-23T13:54:50;98583.06;;;31.41;36.44
46506;BME280;32220;49.808;9.968;2022-10-23T13:57:17;98568.91;;;31.56;36.90
46506;BME280;32220;49.808;9.968;2022-10-23T13:59:45;98554.75;;;31.47;37.42
46506;BME280;32220;49.808;9.968;2022-10-23T14:02:18;98586.91;;;31.63;36.87
46506;BME280;32220;49.808;9.968;2022-10-23T14:04:47;98576.41;;;31.60;36.94
46506;BME280;32220;49.808;9.968;2022-10-23T14:07:16;98574.38;;;31.44;36.91
46506;BME280;32220;49.808;9.968;2022-10-23T14:09:44;98562.72;;;30.95;37.99
46506;BME280;32220;49.808;9.968;2022-10-23T14:12:12;98551.56;;;30.19;38.76
46506;BME280;32220;49.808;9.968;2022-10-23T14:14:41;98538.00;;;29.51;39.27
46506;BME280;32220;49.808;9.968;2022-10-23T14:17:10;98522.56;;;28.88;39.77
46506;BME280;32220;49.808;9.968;2022-10-23T14:19:38;98517.06;;;28.26;40.40
46506;BME280;32220;49.808;9.968;2022-10-23T14:22:08;98531.03;;;27.78;40.78
46506;BME280;32220;49.808;9.968;2022-10-23T14:24:36;98549.91;;;27.33;41.96
46506;BME280;32220;49.808;9.968;2022-10-23T14:27:04;98523.13;;;26.77;43.66
46506;BME280;32220;49.808;9.968;2022-10-23T14:29:32;98516.75;;;26.31;44.46
46506;BME280;32220;49.808;9.968;2022-10-23T14:32:00;98523.28;;;25.95;44.77
46506;BME280;32220;49.808;9.968;2022-10-23T14:34:27;98491.69;;;25.47;45.24
46506;BME280;32220;49.808;9.968;2022-10-23T14:36:55;98509.94;;;25.31;46.42
46506;BME280;32220;49.808;9.968;2022-10-23T14:39:24;98497.03;;;25.05;46.61
46506;BME280;32220;49.808;9.968;2022-10-23T14:41:52;98479.03;;;24.77;48.01
46506;BME280;32220;49.808;9.968;2022-10-23T14:44:19;98470.47;;;24.52;48.35
46506;BME280;32220;49.808;9.968;2022-10-23T14:46:47;98486.16;;;24.56;49.19
46506;BME280;32220;49.808;9.968;2022-10-23T14:49:15;98454.91;;;24.32;49.90
46506;BME280;32220;49.808;9.968;2022-10-23T14:51:43;98440.09;;;24.14;50.15
46506;BME280;32220;49.808;9.968;2022-10-23T14:54:10;98443.91;;;23.98;50.34
46506;BME280;32220;49.808;9.968;2022-10-23T14:56:40;98426.22;;;23.66;51.00
46506;BME280;32220;49.808;9.968;2022-10-23T14:59:08;98459.63;;;23.73;51.17
46506;BME280;32220;49.808;9.968;2022-10-23T15:01:38;98454.03;;;23.60;51.62
46506;BME280;32220;49.808;9.968;2022-10-23T15:04:06;98422.50;;;23.38;52.12
46506;BME280;32220;49.808;9.968;2022-10-23T15:06:34;98435.00;;;23.39;52.33
46506;BME280;32220;49.808;9.968;2022-10-23T15:09:03;98413.97;;;23.19;52.74
46506;BME280;32220;49.808;9.968;2022-10-23T15:11:31;98425.97;;;23.17;52.72
46506;BME280;32220;49.808;9.968;2022-10-23T15:14:00;98423.66;;;22.99;53.56
46506;BME280;32220;49.808;9.968;2022-10-23T15:16:28;98409.66;;;22.81;53.77
46506;BME280;32220;49.808;9.968;2022-10-23T15:18:55;98403.66;;;22.71;54.10
46506;BME280;32220;49.808;9.968;2022-10-23T15:21:23;98385.47;;;22.50;54.59
46506;BME280;32220;49.808;9.968;2022-10-23T15:23:52;98374.06;;;22.40;54.94
46506;BME280;32220;49.808;9.968;2022-10-23T15:26:20;98397.69;;;22.38;55.02
46506;BME280;32220;49.808;9.968;2022-10-23T15:28:52;98411.16;;;22.23;55.48
46506;BME280;32220;49.808;9.968;2022-10-23T15:31:44;98401.19;;;22.01;56.40
46506;BME280;32220;49.808;9.968;2022-10-23T15:34:14;98415.38;;;21.95;56.47
46506;BME280;32220;49.808;9.968;2022-10-23T15:36:44;98403.31;;;21.82;56.31
46506;BME280;32220;49.808;9.968;2022-10-23T15:39:15;98385.94;;;21.62;57.01
46506;BME280;32220;49.808;9.968;2022-10-23T15:41:43;98395.03;;;21.61;57.21
46506;BME280;32220;49.808;9.968;2022-10-23T15:44:13;98381.97;;;21.42;57.63
46506;BME280;32220;49.808;9.968;2022-10-23T15:46:41;98388.41;;;21.33;58.06
46506;BME280;32220;49.808;9.968;2022-10-23T15:49:11;98405.59;;;21.32;57.96
46506;BME280;32220;49.808;9.968;2022-10-23T15:51:39;98397.91;;;21.21;58.07
46506;BME280;32220;49.808;9.968;2022-10-23T15:54:09;98397.22;;;21.10;58.46
46506;BME280;32220;49.808;9.968;2022-10-23T15:56:38;98352.22;;;20.80;58.82
46506;BME280;32220;49.808;9.968;2022-10-23T15:59:06;98377.09;;;20.90;59.13
46506;BME280;32220;49.808;9.968;2022-10-23T16:01:33;98376.63;;;20.78;59.13
46506;BME280;32220;49.808;9.968;2022-10-23T16:04:01;98373.44;;;20.75;60.02
46506;BME280;32220;49.808;9.968;2022-10-23T16:06:31;98379.84;;;20.74;60.15
46506;BME280;32220;49.808;9.968;2022-10-23T16:08:59;98373.47;;;20.59;59.77
46506;BME280;32220;49.808;9.968;2022-10-23T16:11:30;98381.88;;;20.64;59.58
46506;BME280;32220;49.808;9.968;2022-10-23T16:13:58;98364.06;;;20.55;59.73
46506;BME280;32220;49.808;9.968;2022-10-23T16:16:27;98353.66;;;20.43;60.11
46506;BME280;32220;49.808;9.968;2022-10-23T16:18:57;98355.34;;;20.36;60.70
46506;BME280;32220;49.808;9.968;2022-10-23T16:21:27;98345.75;;;20.26;61.20
46506;BME280;32220;49.808;9.968;2022-10-23T16:23:58;98351.97;;;20.26;62.35
46506;BME280;32220;49.808;9.968;2022-10-23T16:26:28;98333.47;;;20.07;62.61
46506;BME280;32220;49.808;9.968;2022-10-23T16:28:58;98354.66;;;20.10;62.25
46506;BME280;32220;49.808;9.968;2022-10-23T16:31:27;98350.78;;;20.04;62.78
46506;BME280;32220;49.808;9.968;2022-10-23T16:33:56;98354.16;;;19.98;62.58
46506;BME280;32220;49.808;9.968;2022-10-23T16:36:24;98328.78;;;19.85;62.58
46506;BME280;32220;49.808;9.968;2022-10-23T16:39:07;98343.22;;;19.92;62.76
46506;BME280;32220;49.808;9.968;2022-10-23T16:41:53;98343.75;;;19.87;62.25
46506;BME280;32220;49.808;9.968;2022-10-23T16:44:25;98328.09;;;19.75;62.35
46506;BME280;32220;49.808;9.968;2022-10-23T16:46:57;98320.38;;;19.63;62.65
46506;BME280;32220;49.808;9.968;2022-10-23T16:49:25;98329.75;;;19.67;62.71
46506;BME280;32220;49.808;9.968;2022-10-23T16:51:54;98316.16;;;19.53;62.83
46506;BME280;32220;49.808;9.968;2022-10-23T16:54:26;98319.69;;;19.53;62.42
46506;BME280;32220;49.808;9.968;2022-10-23T16:56:54;98293.56;;;19.29;62.23
46506;BME280;32220;49.808;9.968;2022-10-23T16:59:24;98316.78;;;19.38;62.39
46506;BME280;32220;49.808;9.968;2022-10-23T17:01:55;98326.31;;;19.33;62.76
46506;BME280;32220;49.808;9.968;2022-10-23T17:04:22;98329.66;;;19.27;62.76
46506;BME280;32220;49.808;9.968;2022-10-23T17:06:50;98321.56;;;19.19;62.75
46506;BME280;32220;49.808;9.968;2022-10-23T17:09:18;98347.41;;;19.12;63.07
46506;BME280;32220;49.808;9.968;2022-10-23T17:11:48;98334.75;;;18.96;63.93
46506;BME280;32220;49.808;9.968;2022-10-23T17:14:17;98351.53;;;18.98;64.12
46506;BME280;32220;49.808;9.968;2022-10-23T17:16:48;98344.28;;;18.90;64.61